sensor_id;sensor_type;location;lat;lon;timestamp;P1;durP1;ratioP1;P2;durP2;ratioP2
41829;SDS011;38614;43.472;23.936;2023-04-01T00:01:56;6.32;;;2.92;;
41829;SDS011;38614;43.472;23.936;2023-04-01T00:04:44;4.90;;;2.45;;
41829;SDS011;38614;43.472;23.936;2023-04-01T00:07:32;8.77;;;4.30;;
41829;SDS011;38614;43.472;23.936;2023-04-01T00:10:20;8.27;;;3.47;;
41829;SDS011;38614;43.472;23.936;2023-04-01T00:13:08;6.18;;;2.95;;
41829;SDS011;38614;43.472;23.936;2023-04-01T00:15:56;7.93;;;3.38;;
41829;SDS011;38614;43.472;23.936;2023-04-01T00:18:46;8.88;;;4.07;;
41829;SDS011;38614;43.472;23.936;2023-04-01T00:21:34;7.18;;;3.75;;
41829;SDS011;38614;43.472;23.936;2023-04-01T00:24:23;13.70;;;4.70;;
41829;SDS011;38614;43.472;23.936;2023-04-01T00:27:12;12.23;;;3.78;;
41829;SDS011;38614;43.472;23.936;2023-04-01T00:29:59;14.23;;;4.43;;
41829;SDS011;38614;43.472;23.936;2023-04-01T00:32:51;7.82;;;4.47;;
41829;SDS011;38614;43.472;23.936;2023-04-01T00:35:40;10.27;;;5.32;;
41829;SDS011;38614;43.472;23.936;2023-04-01T00:38:27;8.40;;;5.10;;
41829;SDS011;38614;43.472;23.936;2023-04-01T00:41:15;12.82;;;5.28;;
41829;SDS011;38614;43.472;23.936;2023-04-01T00:44:18;8.80;;;4.22;;
41829;SDS011;38614;43.472;23.936;2023-04-01T00:47:10;14.68;;;6.78;;
41829;SDS011;38614;43.472;23.936;2023-04-01T00:49:58;17.13;;;7.20;;
41829;SDS011;38614;43.472;23.936;2023-04-01T00:52:46;17.23;;;6.07;;
41829;SDS011;38614;43.472;23.936;2023-04-01T00:55:35;16.15;;;6.65;;
41829;SDS011;38614;43.472;23.936;2023-04-01T00:58:27;24.58;;;9.35;;
41829;SDS011;38614;43.472;23.936;2023-04-01T01:01:19;16.25;;;7.45;;
41829;SDS011;38614;43.472;23.936;2023-04-01T01:10:35;14.60;;;6.43;;
41829;SDS011;38614;43.472;23.936;2023-04-01T01:13:41;12.95;;;5.75;;
41829;SDS011;38614;43.472;23.936;2023-04-01T01:16:40;7.80;;;3.95;;
41829;SDS011;38614;43.472;23.936;2023-04-01T01:35:38;30.48;;;13.90;;
41829;SDS011;38614;43.472;23.936;2023-04-01T01:38:37;20.65;;;8.77;;
41829;SDS011;38614;43.472;23.936;2023-04-01T01:41:26;10.88;;;5.20;;
41829;SDS011;38614;43.472;23.936;2023-04-01T01:44:16;68.43;;;49.97;;
41829;SDS011;38614;43.472;23.936;2023-04-01T01:47:05;51.55;;;37.78;;
41829;SDS011;38614;43.472;23.936;2023-04-01T01:49:53;37.53;;;31.05;;
41829;SDS011;38614;43.472;23.936;2023-04-01T01:52:42;24.50;;;16.30;;
41829;SDS011;38614;43.472;23.936;2023-04-01T01:55:32;13.05;;;7.35;;
41829;SDS011;38614;43.472;23.936;2023-04-01T01:58:24;7.60;;;6.47;;
41829;SDS011;38614;43.472;23.936;2023-04-01T02:01:14;7.50;;;4.60;;
41829;SDS011;38614;43.472;23.936;2023-04-01T02:04:05;9.32;;;5.63;;
41829;SDS011;38614;43.472;23.936;2023-04-01T02:07:02;7.07;;;4.95;;
41829;SDS011;38614;43.472;23.936;2023-04-01T02:09:52;7.28;;;3.83;;
41829;SDS011;38614;43.472;23.936;2023-04-01T02:12:41;5.45;;;3.50;;
41829;SDS011;38614;43.472;23.936;2023-04-01T02:15:34;7.93;;;3.35;;
41829;SDS011;38614;43.472;23.936;2023-04-01T02:18:28;5.65;;;3.45;;
41829;SDS011;38614;43.472;23.936;2023-04-01T02:21:17;6.05;;;3.42;;
41829;SDS011;38614;43.472;23.936;2023-04-01T02:24:08;5.45;;;4.60;;
41829;SDS011;38614;43.472;23.936;2023-04-01T02:27:00;6.45;;;4.30;;
41829;SDS011;38614;43.472;23.936;2023-04-01T02:29:49;10.00;;;4.00;;
41829;SDS011;38614;43.472;23.936;2023-04-01T02:32:38;11.40;;;5.07;;
41829;SDS011;38614;43.472;23.936;2023-04-01T02:35:27;8.45;;;3.47;;
41829;SDS011;38614;43.472;23.936;2023-04-01T02:38:14;9.43;;;3.63;;
41829;SDS011;38614;43.472;23.936;2023-04-01T02:41:04;7.78;;;3.20;;
41829;SDS011;38614;43.472;23.936;2023-04-01T02:43:54;7.03;;;2.78;;
41829;SDS011;38614;43.472;23.936;2023-04-01T02:46:50;11.90;;;2.95;;
41829;SDS011;38614;43.472;23.936;2023-04-01T02:49:39;7.68;;;3.20;;
41829;SDS011;38614;43.472;23.936;2023-04-01T02:52:29;9.60;;;4.00;;
41829;SDS011;38614;43.472;23.936;2023-04-01T02:55:20;13.98;;;4.45;;
41829;SDS011;38614;43.472;23.936;2023-04-01T02:58:08;15.05;;;9.07;;
41829;SDS011;38614;43.472;23.936;2023-04-01T03:00:55;29.33;;;12.20;;
41829;SDS011;38614;43.472;23.936;2023-04-01T03:03:43;34.08;;;15.57;;
41829;SDS011;38614;43.472;23.936;2023-04-01T03:06:31;15.10;;;7.25;;
41829;SDS011;38614;43.472;23.936;2023-04-01T03:09:19;27.83;;;16.52;;
41829;SDS011;38614;43.472;23.936;2023-04-01T03:12:06;35.15;;;20.33;;
41829;SDS011;38614;43.472;23.936;2023-04-01T03:15:04;19.58;;;10.40;;
41829;SDS011;38614;43.472;23.936;2023-04-01T03:17:58;15.13;;;6.60;;
41829;SDS011;38614;43.472;23.936;2023-04-01T03:20:46;11.80;;;4.95;;
41829;SDS011;38614;43.472;23.936;2023-04-01T03:23:34;11.18;;;5.43;;
41829;SDS011;38614;43.472;23.936;2023-04-01T03:26:22;15.10;;;5.18;;
41829;SDS011;38614;43.472;23.936;2023-04-01T03:29:10;12.23;;;6.00;;
41829;SDS011;38614;43.472;23.936;2023-04-01T03:31:57;11.50;;;4.82;;
41829;SDS011;38614;43.472;23.936;2023-04-01T03:34:46;13.75;;;7.80;;
41829;SDS011;38614;43.472;23.936;2023-04-01T03:37:34;12.60;;;6.13;;
41829;SDS011;38614;43.472;23.936;2023-04-01T03:40:22;17.58;;;6.18;;
41829;SDS011;38614;43.472;23.936;2023-04-01T03:43:16;11.00;;;5.68;;
41829;SDS011;38614;43.472;23.936;2023-04-01T03:46:04;17.10;;;7.40;;
41829;SDS011;38614;43.472;23.936;2023-04-01T03:48:52;23.85;;;6.50;;
41829;SDS011;38614;43.472;23.936;2023-04-01T03:51:40;14.60;;;6.10;;
41829;SDS011;38614;43.472;23.936;2023-04-01T03:54:30;15.02;;;6.45;;
41829;SDS011;38614;43.472;23.936;2023-04-01T03:57:18;9.95;;;5.43;;
41829;SDS011;38614;43.472;23.936;2023-04-01T04:00:06;12.63;;;5.25;;
41829;SDS011;38614;43.472;23.936;2023-04-01T04:02:59;10.70;;;4.88;;
41829;SDS011;38614;43.472;23.936;2023-04-01T04:05:51;10.63;;;5.32;;
41829;SDS011;38614;43.472;23.936;2023-04-01T04:08:39;11.60;;;4.90;;
41829;SDS011;38614;43.472;23.936;2023-04-01T04:11:27;7.45;;;3.83;;
41829;SDS011;38614;43.472;23.936;2023-04-01T04:14:15;15.88;;;5.07;;
41829;SDS011;38614;43.472;23.936;2023-04-01T04:17:05;6.30;;;2.92;;
41829;SDS011;38614;43.472;23.936;2023-04-01T04:19:53;1.60;;;0.95;;
41829;SDS011;38614;43.472;23.936;2023-04-01T04:22:41;8.35;;;1.83;;
41829;SDS011;38614;43.472;23.936;2023-04-01T04:25:29;2.50;;;1.08;;
41829;SDS011;38614;43.472;23.936;2023-04-01T04:28:17;5.10;;;1.25;;
41829;SDS011;38614;43.472;23.936;2023-04-01T04:31:05;6.97;;;2.03;;
41829;SDS011;38614;43.472;23.936;2023-04-01T04:33:55;10.73;;;3.03;;
41829;SDS011;38614;43.472;23.936;2023-04-01T04:36:42;6.32;;;3.63;;
41829;SDS011;38614;43.472;23.936;2023-04-01T04:39:31;9.27;;;3.83;;
41829;SDS011;38614;43.472;23.936;2023-04-01T04:42:19;12.18;;;5.35;;
41829;SDS011;38614;43.472;23.936;2023-04-01T04:45:07;6.72;;;4.00;;
41829;SDS011;38614;43.472;23.936;2023-04-01T04:47:57;7.43;;;4.65;;
41829;SDS011;38614;43.472;23.936;2023-04-01T04:50:47;10.90;;;4.75;;
41829;SDS011;38614;43.472;23.936;2023-04-01T04:53:38;7.15;;;3.40;;
41829;SDS011;38614;43.472;23.936;2023-04-01T04:56:26;10.32;;;2.60;;
41829;SDS011;38614;43.472;23.936;2023-04-01T04:59:22;9.93;;;3.58;;
41829;SDS011;38614;43.472;23.936;2023-04-01T05:02:36;6.55;;;3.47;;
41829;SDS011;38614;43.472;23.936;2023-04-01T05:05:24;21.38;;;4.68;;
41829;SDS011;38614;43.472;23.936;2023-04-01T05:08:12;7.45;;;3.17;;
41829;SDS011;38614;43.472;23.936;2023-04-01T05:11:00;5.72;;;1.33;;
41829;SDS011;38614;43.472;23.936;2023-04-01T05:13:49;2.70;;;0.98;;
41829;SDS011;38614;43.472;23.936;2023-04-01T05:16:38;3.00;;;0.80;;
41829;SDS011;38614;43.472;23.936;2023-04-01T05:19:25;0.95;;;0.38;;
41829;SDS011;38614;43.472;23.936;2023-04-01T05:22:13;4.55;;;0.77;;
41829;SDS011;38614;43.472;23.936;2023-04-01T05:25:04;7.22;;;1.17;;
41829;SDS011;38614;43.472;23.936;2023-04-01T05:27:56;3.42;;;0.63;;
41829;SDS011;38614;43.472;23.936;2023-04-01T05:30:44;2.28;;;0.50;;
41829;SDS011;38614;43.472;23.936;2023-04-01T05:33:44;5.10;;;1.30;;
41829;SDS011;38614;43.472;23.936;2023-04-01T05:36:32;8.52;;;1.60;;
41829;SDS011;38614;43.472;23.936;2023-04-01T05:39:20;13.70;;;5.20;;
41829;SDS011;38614;43.472;23.936;2023-04-01T05:42:07;10.70;;;4.03;;
41829;SDS011;38614;43.472;23.936;2023-04-01T05:44:56;7.00;;;2.50;;
41829;SDS011;38614;43.472;23.936;2023-04-01T05:48:02;7.40;;;3.80;;
41829;SDS011;38614;43.472;23.936;2023-04-01T05:50:55;11.15;;;4.25;;
41829;SDS011;38614;43.472;23.936;2023-04-01T05:53:43;14.32;;;3.22;;
41829;SDS011;38614;43.472;23.936;2023-04-01T05:56:33;9.63;;;2.90;;
41829;SDS011;38614;43.472;23.936;2023-04-01T05:59:21;6.25;;;3.03;;
41829;SDS011;38614;43.472;23.936;2023-04-01T06:02:11;4.72;;;2.22;;
41829;SDS011;38614;43.472;23.936;2023-04-01T06:05:11;20.38;;;3.30;;
41829;SDS011;38614;43.472;23.936;2023-04-01T06:08:05;10.88;;;2.65;;
41829;SDS011;38614;43.472;23.936;2023-04-01T06:14:01;11.48;;;3.65;;
41829;SDS011;38614;43.472;23.936;2023-04-01T06:19:56;4.28;;;2.42;;
41829;SDS011;38614;43.472;23.936;2023-04-01T06:26:48;13.57;;;4.28;;
41829;SDS011;38614;43.472;23.936;2023-04-01T06:30:02;4.82;;;2.20;;
41829;SDS011;38614;43.472;23.936;2023-04-01T06:53:09;10.95;;;4.07;;
41829;SDS011;38614;43.472;23.936;2023-04-01T06:56:04;18.08;;;6.05;;
41829;SDS011;38614;43.472;23.936;2023-04-01T06:59:20;56.33;;;17.58;;
41829;SDS011;38614;43.472;23.936;2023-04-01T07:05:18;21.92;;;8.82;;
41829;SDS011;38614;43.472;23.936;2023-04-01T07:08:11;21.67;;;7.35;;
41829;SDS011;38614;43.472;23.936;2023-04-01T07:11:15;7.35;;;4.28;;
41829;SDS011;38614;43.472;23.936;2023-04-01T07:14:48;6.47;;;3.25;;
41829;SDS011;38614;43.472;23.936;2023-04-01T07:17:41;11.60;;;3.75;;
41829;SDS011;38614;43.472;23.936;2023-04-01T07:20:35;5.70;;;2.97;;
41829;SDS011;38614;43.472;23.936;2023-04-01T07:23:26;6.10;;;4.07;;
41829;SDS011;38614;43.472;23.936;2023-04-01T07:26:28;9.02;;;4.10;;
41829;SDS011;38614;43.472;23.936;2023-04-01T07:29:30;10.70;;;4.25;;
41829;SDS011;38614;43.472;23.936;2023-04-01T07:35:13;16.48;;;7.32;;
41829;SDS011;38614;43.472;23.936;2023-04-01T07:38:20;13.27;;;7.75;;
41829;SDS011;38614;43.472;23.936;2023-04-01T07:54:17;17.15;;;8.95;;
41829;SDS011;38614;43.472;23.936;2023-04-01T08:00:51;21.10;;;8.95;;
41829;SDS011;38614;43.472;23.936;2023-04-01T08:03:24;18.48;;;9.75;;
41829;SDS011;38614;43.472;23.936;2023-04-01T08:06:31;32.72;;;9.70;;
41829;SDS011;38614;43.472;23.936;2023-04-01T08:22:41;18.33;;;4.55;;
41829;SDS011;38614;43.472;23.936;2023-04-01T08:25:39;5.50;;;1.33;;
41829;SDS011;38614;43.472;23.936;2023-04-01T08:28:33;3.55;;;1.20;;
41829;SDS011;38614;43.472;23.936;2023-04-01T08:35:07;4.00;;;0.63;;
41829;SDS011;38614;43.472;23.936;2023-04-01T08:38:10;3.53;;;1.40;;
41829;SDS011;38614;43.472;23.936;2023-04-01T08:45:04;6.57;;;1.08;;
41829;SDS011;38614;43.472;23.936;2023-04-01T08:58:18;3.22;;;1.27;;
41829;SDS011;38614;43.472;23.936;2023-04-01T09:08:20;5.65;;;0.50;;
41829;SDS011;38614;43.472;23.936;2023-04-01T09:18:20;5.88;;;0.93;;
41829;SDS011;38614;43.472;23.936;2023-04-01T09:27:27;6.93;;;0.40;;
41829;SDS011;38614;43.472;23.936;2023-04-01T09:34:02;2.13;;;0.57;;
41829;SDS011;38614;43.472;23.936;2023-04-01T09:37:33;4.85;;;0.22;;
41829;SDS011;38614;43.472;23.936;2023-04-01T09:46:51;4.68;;;0.40;;
41829;SDS011;38614;43.472;23.936;2023-04-01T09:49:53;7.00;;;0.50;;
41829;SDS011;38614;43.472;23.936;2023-04-01T10:36:41;3.55;;;1.02;;
41829;SDS011;38614;43.472;23.936;2023-04-01T10:46:05;8.13;;;2.20;;
41829;SDS011;38614;43.472;23.936;2023-04-01T10:49:21;6.88;;;0.68;;
41829;SDS011;38614;43.472;23.936;2023-04-01T11:19:52;4.57;;;0.80;;
41829;SDS011;38614;43.472;23.936;2023-04-01T11:52:09;8.18;;;2.17;;
41829;SDS011;38614;43.472;23.936;2023-04-01T12:16:29;9.27;;;2.38;;
41829;SDS011;38614;43.472;23.936;2023-04-01T12:23:03;4.57;;;1.35;;
41829;SDS011;38614;43.472;23.936;2023-04-01T12:41:55;13.20;;;3.35;;
41829;SDS011;38614;43.472;23.936;2023-04-01T12:44:50;12.23;;;4.10;;
41829;SDS011;38614;43.472;23.936;2023-04-01T12:57:51;10.88;;;4.57;;
41829;SDS011;38614;43.472;23.936;2023-04-01T13:06:32;14.63;;;4.38;;
41829;SDS011;38614;43.472;23.936;2023-04-01T13:18:46;10.25;;;3.17;;
41829;SDS011;38614;43.472;23.936;2023-04-01T13:40:48;13.32;;;3.70;;
41829;SDS011;38614;43.472;23.936;2023-04-01T13:43:58;10.32;;;3.42;;
41829;SDS011;38614;43.472;23.936;2023-04-01T14:01:45;8.63;;;1.33;;
41829;SDS011;38614;43.472;23.936;2023-04-01T14:10:48;4.82;;;1.30;;
41829;SDS011;38614;43.472;23.936;2023-04-01T14:30:31;6.57;;;3.00;;
41829;SDS011;38614;43.472;23.936;2023-04-01T14:48:57;6.47;;;1.83;;
41829;SDS011;38614;43.472;23.936;2023-04-01T14:52:05;7.00;;;1.67;;
41829;SDS011;38614;43.472;23.936;2023-04-01T14:55:02;4.50;;;1.85;;
41829;SDS011;38614;43.472;23.936;2023-04-01T14:58:15;12.82;;;2.50;;
41829;SDS011;38614;43.472;23.936;2023-04-01T15:14:16;4.85;;;1.80;;
41829;SDS011;38614;43.472;23.936;2023-04-01T15:17:22;6.07;;;1.65;;
41829;SDS011;38614;43.472;23.936;2023-04-01T15:23:27;5.07;;;1.85;;
41829;SDS011;38614;43.472;23.936;2023-04-01T15:32:44;6.05;;;1.33;;
41829;SDS011;38614;43.472;23.936;2023-04-01T15:35:47;6.28;;;2.22;;
41829;SDS011;38614;43.472;23.936;2023-04-01T15:45:26;7.85;;;3.80;;
41829;SDS011;38614;43.472;23.936;2023-04-01T15:48:33;8.52;;;4.40;;
41829;SDS011;38614;43.472;23.936;2023-04-01T16:01:16;7.75;;;1.15;;
41829;SDS011;38614;43.472;23.936;2023-04-01T16:10:38;5.93;;;1.30;;
41829;SDS011;38614;43.472;23.936;2023-04-01T16:13:46;2.20;;;0.60;;
41829;SDS011;38614;43.472;23.936;2023-04-01T16:19:47;6.28;;;2.25;;
41829;SDS011;38614;43.472;23.936;2023-04-01T16:22:45;6.85;;;1.63;;
41829;SDS011;38614;43.472;23.936;2023-04-01T16:25:43;14.52;;;1.45;;
41829;SDS011;38614;43.472;23.936;2023-04-01T16:28:53;7.07;;;0.73;;
41829;SDS011;38614;43.472;23.936;2023-04-01T16:31:49;3.60;;;0.63;;
41829;SDS011;38614;43.472;23.936;2023-04-01T16:38:05;1.20;;;0.30;;
41829;SDS011;38614;43.472;23.936;2023-04-01T16:41:15;1.25;;;0.63;;
41829;SDS011;38614;43.472;23.936;2023-04-01T16:44:23;3.00;;;0.30;;
41829;SDS011;38614;43.472;23.936;2023-04-01T16:47:12;0.30;;;0.10;;
41829;SDS011;38614;43.472;23.936;2023-04-01T16:50:24;0.90;;;0.10;;
41829;SDS011;38614;43.472;23.936;2023-04-01T16:53:21;0.65;;;0.10;;
41829;SDS011;38614;43.472;23.936;2023-04-01T16:56:27;0.68;;;0.20;;
41829;SDS011;38614;43.472;23.936;2023-04-01T16:59:37;0.88;;;0.17;;
41829;SDS011;38614;43.472;23.936;2023-04-01T17:02:30;2.17;;;0.20;;
41829;SDS011;38614;43.472;23.936;2023-04-01T17:05:33;0.60;;;0.30;;
41829;SDS011;38614;43.472;23.936;2023-04-01T17:20:58;1.08;;;0.32;;
41829;SDS011;38614;43.472;23.936;2023-04-01T17:23:51;4.85;;;0.35;;
41829;SDS011;38614;43.472;23.936;2023-04-01T17:36:12;2.25;;;1.55;;
41829;SDS011;38614;43.472;23.936;2023-04-01T17:42:33;1.35;;;0.65;;
41829;SDS011;38614;43.472;23.936;2023-04-01T17:45:37;0.85;;;0.57;;
41829;SDS011;38614;43.472;23.936;2023-04-01T18:08:15;2.83;;;0.30;;
41829;SDS011;38614;43.472;23.936;2023-04-01T18:17:44;0.90;;;0.10;;
41829;SDS011;38614;43.472;23.936;2023-04-01T18:23:40;1.75;;;0.25;;
41829;SDS011;38614;43.472;23.936;2023-04-01T18:27:00;1.73;;;0.63;;
41829;SDS011;38614;43.472;23.936;2023-04-01T18:29:49;1.70;;;1.05;;
41829;SDS011;38614;43.472;23.936;2023-04-01T18:32:52;1.48;;;1.38;;
41829;SDS011;38614;43.472;23.936;2023-04-01T18:42:33;0.75;;;0.45;;
41829;SDS011;38614;43.472;23.936;2023-04-01T18:45:34;0.47;;;0.30;;
41829;SDS011;38614;43.472;23.936;2023-04-01T18:51:54;0.63;;;0.27;;
41829;SDS011;38614;43.472;23.936;2023-04-01T18:55:18;0.55;;;0.32;;
41829;SDS011;38614;43.472;23.936;2023-04-01T19:07:32;0.60;;;0.60;;
41829;SDS011;38614;43.472;23.936;2023-04-01T19:10:45;8.40;;;3.92;;
41829;SDS011;38614;43.472;23.936;2023-04-01T19:13:52;36.25;;;12.23;;
41829;SDS011;38614;43.472;23.936;2023-04-01T19:17:06;0.63;;;0.55;;
41829;SDS011;38614;43.472;23.936;2023-04-01T19:20:21;1.17;;;0.45;;
41829;SDS011;38614;43.472;23.936;2023-04-01T19:23:33;7.35;;;3.13;;
41829;SDS011;38614;43.472;23.936;2023-04-01T19:29:26;0.77;;;0.40;;
41829;SDS011;38614;43.472;23.936;2023-04-01T19:41:40;0.20;;;0.10;;
41829;SDS011;38614;43.472;23.936;2023-04-01T19:50:47;0.30;;;0.10;;
41829;SDS011;38614;43.472;23.936;2023-04-01T19:53:47;0.20;;;0.10;;
41829;SDS011;38614;43.472;23.936;2023-04-01T19:56:48;0.35;;;0.10;;
41829;SDS011;38614;43.472;23.936;2023-04-01T20:00:02;0.60;;;0.13;;
41829;SDS011;38614;43.472;23.936;2023-04-01T20:03:35;0.38;;;0.20;;
41829;SDS011;38614;43.472;23.936;2023-04-01T20:12:58;1.30;;;0.40;;
41829;SDS011;38614;43.472;23.936;2023-04-01T20:16:03;0.20;;;0.10;;
41829;SDS011;38614;43.472;23.936;2023-04-01T20:18:57;0.80;;;0.17;;
41829;SDS011;38614;43.472;23.936;2023-04-01T20:21:47;0.30;;;0.30;;
41829;SDS011;38614;43.472;23.936;2023-04-01T20:24:43;3.83;;;0.47;;
41829;SDS011;38614;43.472;23.936;2023-04-01T20:27:35;0.60;;;0.30;;
41829;SDS011;38614;43.472;23.936;2023-04-01T20:37:39;0.70;;;0.50;;
41829;SDS011;38614;43.472;23.936;2023-04-01T20:41:12;0.77;;;0.40;;
41829;SDS011;38614;43.472;23.936;2023-04-01T20:44:36;0.15;;;0.08;;
41829;SDS011;38614;43.472;23.936;2023-04-01T20:51:24;1.08;;;0.25;;
41829;SDS011;38614;43.472;23.936;2023-04-01T20:57:31;1.85;;;0.55;;
41829;SDS011;38614;43.472;23.936;2023-04-01T21:09:49;0.52;;;0.38;;
41829;SDS011;38614;43.472;23.936;2023-04-01T21:13:03;0.73;;;0.40;;
41829;SDS011;38614;43.472;23.936;2023-04-01T22:05:28;0.80;;;0.77;;
41829;SDS011;38614;43.472;23.936;2023-04-01T22:14:28;1.25;;;0.90;;
41829;SDS011;38614;43.472;23.936;2023-04-01T22:17:45;0.68;;;0.68;;
41829;SDS011;38614;43.472;23.936;2023-04-01T22:20:43;4.78;;;0.70;;
41829;SDS011;38614;43.472;23.936;2023-04-01T22:23:53;1.40;;;1.23;;
41829;SDS011;38614;43.472;23.936;2023-04-01T22:30:07;1.13;;;0.93;;
41829;SDS011;38614;43.472;23.936;2023-04-01T22:33:20;2.03;;;1.52;;
41829;SDS011;38614;43.472;23.936;2023-04-01T22:39:45;1.25;;;0.40;;
41829;SDS011;38614;43.472;23.936;2023-04-01T22:42:43;4.78;;;0.40;;
41829;SDS011;38614;43.472;23.936;2023-04-01T22:48:45;0.83;;;0.33;;
41829;SDS011;38614;43.472;23.936;2023-04-01T22:51:43;1.05;;;0.35;;
41829;SDS011;38614;43.472;23.936;2023-04-01T23:00:55;1.17;;;0.20;;
41829;SDS011;38614;43.472;23.936;2023-04-01T23:03:46;4.68;;;0.52;;
41829;SDS011;38614;43.472;23.936;2023-04-01T23:06:39;0.47;;;0.20;;
41829;SDS011;38614;43.472;23.936;2023-04-01T23:09:42;0.82;;;0.30;;
41829;SDS011;38614;43.472;23.936;2023-04-01T23:12:31;0.28;;;0.15;;
41829;SDS011;38614;43.472;23.936;2023-04-01T23:15:20;0.43;;;0.40;;
41829;SDS011;38614;43.472;23.936;2023-04-01T23:18:14;1.20;;;0.15;;
41829;SDS011;38614;43.472;23.936;2023-04-01T23:21:12;0.30;;;0.10;;
41829;SDS011;38614;43.472;23.936;2023-04-01T23:27:25;0.13;;;0.10;;
41829;SDS011;38614;43.472;23.936;2023-04-01T23:31:07;0.20;;;0.20;;
41829;SDS011;38614;43.472;23.936;2023-04-01T23:33:30;0.50;;;0.20;;
41829;SDS011;38614;43.472;23.936;2023-04-01T23:36:18;0.32;;;0.10;;
41829;SDS011;38614;43.472;23.936;2023-04-01T23:39:14;0.90;;;0.10;;
41829;SDS011;38614;43.472;23.936;2023-04-01T23:45:16;0.70;;;0.25;;
41829;SDS011;38614;43.472;23.936;2023-04-01T23:48:10;0.50;;;0.10;;
41829;SDS011;38614;43.472;23.936;2023-04-01T23:51:03;0.90;;;0.17;;
41829;SDS011;38614;43.472;23.936;2023-04-01T23:54:18;0.20;;;0.10;;
41829;SDS011;38614;43.472;23.936;2023-04-01T23:57:11;0.10;;;0.00;;
